createdAt,value
2017-01-03T00:00:02.226Z,22.26
2017-01-03T00:00:32.259Z,22.06
2017-01-03T00:01:02.301Z,22.16
2017-01-03T00:01:32.341Z,22.16
2017-01-03T00:02:02.379Z,22.16
2017-01-03T00:02:32.424Z,22.26
2017-01-03T00:03:02.490Z,22.16
2017-01-03T00:03:32.498Z,22.16
2017-01-03T00:04:02.832Z,22.16
2017-01-03T00:04:32.570Z,22.16
2017-01-03T00:05:02.612Z,22.16
2017-01-03T00:05:32.644Z,22.16
2017-01-03T00:06:02.689Z,22.06
2017-01-03T00:06:32.733Z,22.26
2017-01-03T00:07:02.867Z,22.16
2017-01-03T00:07:32.803Z,22.16
2017-01-03T00:08:02.841Z,22.06
2017-01-03T00:08:32.936Z,22.16
2017-01-03T00:09:02.922Z,22.16
2017-01-03T00:09:32.968Z,22.16
2017-01-03T00:10:03.014Z,22.16
2017-01-03T00:10:33.038Z,22.16
2017-01-03T00:11:03.074Z,22.06
2017-01-03T00:11:33.122Z,22.16
2017-01-03T00:12:03.151Z,22.16
2017-01-03T00:12:33.192Z,22.16
2017-01-03T00:13:03.233Z,22.16
2017-01-03T00:13:33.270Z,22.16
2017-01-03T00:14:03.309Z,22.06
2017-01-03T00:14:33.348Z,22.06
2017-01-03T00:15:03.535Z,22.16
2017-01-03T00:15:33.424Z,22.16
2017-01-03T00:16:03.464Z,22.17
2017-01-03T00:16:33.504Z,22.06
2017-01-03T00:17:03.539Z,22.06
2017-01-03T00:17:33.582Z,22.36
2017-01-03T00:18:03.617Z,22.06
2017-01-03T00:18:33.663Z,22.16
2017-01-03T00:19:03.696Z,22.16
2017-01-03T00:19:33.738Z,22.36
2017-01-03T00:20:03.780Z,22.06
2017-01-03T00:20:33.813Z,22.16
2017-01-03T00:21:03.852Z,22.16
2017-01-03T00:21:33.889Z,22.36
2017-01-03T00:22:03.928Z,22.16
2017-01-03T00:22:33.976Z,22.16
2017-01-03T00:23:04.005Z,22.06
2017-01-03T00:23:34.053Z,22.45
2017-01-03T00:24:04.085Z,22.16
2017-01-03T00:24:34.128Z,22.36
2017-01-03T00:25:04.160Z,22.06
2017-01-03T00:25:34.196Z,22.08
2017-01-03T00:26:04.242Z,22.17
2017-01-03T00:26:34.279Z,22.06
2017-01-03T00:27:04.315Z,22.36
2017-01-03T00:27:34.362Z,22.45
2017-01-03T00:28:04.397Z,22.36
2017-01-03T00:28:34.436Z,22.16
2017-01-03T00:29:04.485Z,22.06
2017-01-03T00:29:34.509Z,22.16
2017-01-03T00:30:04.547Z,22.16
2017-01-03T00:30:34.593Z,22.16
2017-01-03T00:31:04.629Z,22.36
2017-01-03T00:31:34.669Z,22.06
2017-01-03T00:32:04.706Z,22.36
2017-01-03T00:32:34.749Z,22.16
2017-01-03T00:33:04.781Z,22.36
2017-01-03T00:33:34.824Z,22.36
2017-01-03T00:34:05.161Z,22.06
2017-01-03T00:34:34.898Z,22.16
2017-01-03T00:35:04.945Z,22.36
2017-01-03T00:35:34.976Z,22.16
2017-01-03T00:36:05.018Z,22.36
2017-01-03T00:36:35.056Z,22.16
2017-01-03T00:37:05.093Z,22.36
2017-01-03T00:37:35.133Z,22.26
2017-01-03T00:38:05.170Z,22.36
2017-01-03T00:38:35.210Z,22.16
2017-01-03T00:39:05.202Z,22.36
2017-01-03T00:39:35.288Z,22.16
2017-01-03T00:40:05.328Z,22.36
2017-01-03T00:40:35.393Z,22.16
2017-01-03T00:41:05.405Z,22.06
2017-01-03T00:41:35.443Z,22.36
2017-01-03T00:42:05.486Z,22.36
2017-01-03T00:42:35.522Z,22.16
2017-01-03T00:43:05.558Z,22.36
2017-01-03T00:43:35.602Z,22.36
2017-01-03T00:44:05.634Z,22.36
2017-01-03T00:44:35.674Z,22.36
2017-01-03T00:45:05.716Z,22.26
2017-01-03T00:45:35.753Z,22.36
2017-01-03T00:46:05.790Z,22.36
2017-01-03T00:46:35.834Z,22.36
2017-01-03T00:47:05.872Z,22.36
2017-01-03T00:47:35.909Z,22.36
2017-01-03T00:48:05.946Z,22.36
2017-01-03T00:48:35.983Z,22.16
2017-01-03T00:49:06.024Z,22.26
2017-01-03T00:49:36.061Z,22.26
2017-01-03T00:50:06.102Z,22.36
2017-01-03T00:50:36.140Z,22.26
2017-01-03T00:51:06.179Z,22.36
2017-01-03T00:51:36.219Z,22.26
2017-01-03T00:52:06.257Z,22.26
2017-01-03T00:52:36.293Z,22.16
2017-01-03T00:53:06.331Z,22.26
2017-01-03T00:53:36.374Z,22.36
2017-01-03T00:54:06.419Z,22.36
2017-01-03T00:54:36.457Z,22.16
2017-01-03T00:55:06.495Z,22.26
2017-01-03T00:55:36.528Z,22.36
2017-01-03T00:56:06.565Z,22.36
2017-01-03T00:56:36.608Z,22.36
2017-01-03T00:57:06.650Z,22.36
2017-01-03T00:57:36.688Z,22.26
2017-01-03T00:58:06.723Z,22.36
2017-01-03T00:58:36.764Z,22.16
2017-01-03T00:59:06.806Z,22.16
2017-01-03T00:59:36.842Z,22.26
2017-01-03T01:00:06.881Z,22.26
2017-01-03T01:00:36.913Z,22.16
2017-01-03T01:01:06.958Z,22.36
2017-01-03T01:01:36.995Z,22.16
2017-01-03T01:02:07.034Z,22.26
2017-01-03T01:02:37.078Z,22.45
2017-01-03T01:03:07.113Z,22.26
2017-01-03T01:03:37.153Z,22.45
2017-01-03T01:04:07.192Z,22.16
2017-01-03T01:04:37.526Z,22.16
2017-01-03T01:05:07.269Z,22.45
2017-01-03T01:05:37.304Z,22.26
2017-01-03T01:06:07.343Z,22.16
2017-01-03T01:06:37.381Z,22.26
2017-01-03T01:07:07.426Z,22.36
2017-01-03T01:07:37.458Z,22.16
2017-01-03T01:08:07.500Z,22.26
2017-01-03T01:08:37.545Z,22.36
2017-01-03T01:09:07.574Z,22.26
2017-01-03T01:09:37.620Z,22.16
2017-01-03T01:10:07.655Z,22.16
2017-01-03T01:10:37.723Z,22.16
2017-01-03T01:11:07.732Z,22.16
2017-01-03T01:11:37.772Z,22.16
2017-01-03T01:12:07.807Z,22.26
2017-01-03T01:12:37.853Z,22.26
2017-01-03T01:13:07.890Z,22.16
2017-01-03T01:13:37.929Z,22.26
2017-01-03T01:14:07.963Z,22.16
2017-01-03T01:14:38.004Z,22.16
2017-01-03T01:15:08.039Z,22.16
2017-01-03T01:15:38.079Z,22.16
2017-01-03T01:16:08.124Z,22.26
2017-01-03T01:16:38.154Z,22.26
2017-01-03T01:17:08.202Z,22.36
2017-01-03T01:17:38.236Z,22.26
2017-01-03T01:18:08.274Z,22.26
2017-01-03T01:18:38.315Z,22.16
2017-01-03T01:19:08.354Z,22.16
2017-01-03T01:19:38.390Z,22.16
2017-01-03T01:20:08.431Z,22.16
2017-01-03T01:20:38.467Z,22.36
2017-01-03T01:21:08.507Z,22.26
2017-01-03T01:21:38.546Z,22.16
2017-01-03T01:22:08.587Z,22.36
2017-01-03T01:22:38.623Z,22.26
2017-01-03T01:23:08.666Z,22.16
2017-01-03T01:23:38.701Z,22.36
2017-01-03T01:24:08.742Z,22.36
2017-01-03T01:24:38.777Z,22.16
2017-01-03T01:25:08.816Z,22.26
2017-01-03T01:25:38.853Z,22.26
2017-01-03T01:26:08.899Z,22.26
2017-01-03T01:26:38.933Z,22.16
2017-01-03T01:27:08.967Z,22.36
2017-01-03T01:27:39.011Z,22.26
2017-01-03T01:28:09.054Z,22.26
2017-01-03T01:28:39.088Z,22.26
2017-01-03T01:29:09.125Z,22.26
2017-01-03T01:29:39.165Z,22.26
2017-01-03T01:30:09.204Z,22.26
2017-01-03T01:30:39.241Z,22.26
2017-01-03T01:31:09.281Z,22.36
2017-01-03T01:31:39.320Z,22.36
2017-01-03T01:32:09.360Z,22.26
2017-01-03T01:32:39.398Z,22.26
2017-01-03T01:33:09.437Z,22.26
2017-01-03T01:33:39.475Z,22.36
2017-01-03T01:34:09.514Z,22.36
2017-01-03T01:34:39.556Z,22.26
2017-01-03T01:35:09.591Z,22.26
2017-01-03T01:35:39.631Z,22.26
2017-01-03T01:36:09.669Z,22.26
2017-01-03T01:36:39.716Z,22.26
2017-01-03T01:37:09.748Z,22.16
2017-01-03T01:37:39.786Z,22.36
2017-01-03T01:38:09.819Z,22.26
2017-01-03T01:38:39.858Z,22.26
2017-01-03T01:39:09.903Z,22.26
2017-01-03T01:39:39.941Z,22.26
2017-01-03T01:40:09.982Z,22.26
2017-01-03T01:40:40.017Z,22.16
2017-01-03T01:41:10.058Z,22.26
2017-01-03T01:41:40.096Z,22.26
2017-01-03T01:42:10.134Z,22.36
2017-01-03T01:42:40.172Z,22.16
2017-01-03T01:43:10.212Z,22.36
2017-01-03T01:43:40.252Z,22.26
2017-01-03T01:44:10.290Z,22.26
2017-01-03T01:44:40.335Z,22.16
2017-01-03T01:45:10.366Z,22.26
2017-01-03T01:45:40.405Z,22.26
2017-01-03T01:46:10.445Z,22.26
2017-01-03T01:46:40.482Z,22.26
2017-01-03T01:47:10.519Z,22.26
2017-01-03T01:47:40.560Z,22.26
2017-01-03T01:48:10.597Z,22.26
2017-01-03T01:48:40.636Z,22.36
2017-01-03T01:49:10.675Z,22.26
2017-01-03T01:49:40.721Z,22.26
2017-01-03T01:50:10.755Z,22.26
2017-01-03T01:50:41.096Z,22.26
2017-01-03T01:51:10.833Z,22.36
2017-01-03T01:51:40.869Z,22.26
2017-01-03T01:52:10.912Z,22.26
2017-01-03T01:52:40.948Z,22.16
2017-01-03T01:53:10.984Z,22.26
2017-01-03T01:53:41.028Z,22.26
2017-01-03T01:54:11.061Z,22.36
2017-01-03T01:54:41.110Z,22.16
2017-01-03T01:55:11.144Z,22.36
2017-01-03T01:55:41.230Z,22.16
2017-01-03T01:56:11.225Z,22.16
2017-01-03T01:56:41.258Z,22.16
2017-01-03T01:57:11.297Z,22.26
2017-01-03T01:57:41.334Z,22.16
2017-01-03T01:58:11.375Z,22.26
2017-01-03T01:58:41.417Z,22.26
2017-01-03T01:59:11.460Z,22.26
2017-01-03T01:59:41.486Z,22.26
2017-01-03T02:00:11.529Z,22.16
2017-01-03T02:00:41.567Z,22.26
2017-01-03T02:01:11.608Z,22.16
2017-01-03T02:01:41.647Z,22.16
2017-01-03T02:02:11.683Z,22.26
2017-01-03T02:02:41.722Z,22.06
2017-01-03T02:03:11.761Z,22.16
2017-01-03T02:03:41.800Z,22.16
2017-01-03T02:04:11.841Z,22.36
2017-01-03T02:04:41.878Z,22.26
2017-01-03T02:05:11.913Z,22.26
2017-01-03T02:05:41.958Z,22.26
2017-01-03T02:06:11.997Z,22.06
2017-01-03T02:06:42.035Z,22.36
2017-01-03T02:07:12.072Z,22.06
2017-01-03T02:07:42.113Z,22.26
2017-01-03T02:08:12.148Z,22.26
2017-01-03T02:08:42.186Z,22.16
2017-01-03T02:09:12.228Z,22.26
2017-01-03T02:09:42.264Z,22.26
2017-01-03T02:10:12.306Z,22.16
2017-01-03T02:10:42.343Z,22.06
2017-01-03T02:11:12.382Z,22.26
2017-01-03T02:11:42.419Z,22.06
2017-01-03T02:12:12.460Z,22.36
2017-01-03T02:12:42.499Z,22.26
2017-01-03T02:13:12.536Z,22.06
2017-01-03T02:13:42.579Z,22.16
2017-01-03T02:14:12.615Z,22.26
2017-01-03T02:14:42.652Z,21.88
2017-01-03T02:15:12.693Z,22.26
2017-01-03T02:15:42.735Z,22.26
2017-01-03T02:16:12.773Z,22.16
2017-01-03T02:16:42.805Z,22.26
2017-01-03T02:17:12.848Z,22.36
2017-01-03T02:17:42.887Z,22.16
2017-01-03T02:18:12.925Z,22.16
2017-01-03T02:18:42.963Z,22.26
2017-01-03T02:19:13.008Z,22.16
2017-01-03T02:19:43.041Z,22.16
2017-01-03T02:20:13.074Z,21.88
2017-01-03T02:20:43.115Z,22.26
2017-01-03T02:21:13.158Z,22.26
2017-01-03T02:21:43.200Z,22.26
2017-01-03T02:22:13.232Z,22.26
2017-01-03T02:22:43.276Z,22.06
2017-01-03T02:23:13.313Z,22.26
2017-01-03T02:23:43.353Z,22.06
2017-01-03T02:24:13.389Z,22.06
2017-01-03T02:24:43.428Z,22.26
2017-01-03T02:25:13.471Z,22.26
2017-01-03T02:25:43.501Z,22.16
2017-01-03T02:26:13.543Z,22.26
2017-01-03T02:26:43.581Z,22.16
2017-01-03T02:27:13.623Z,22.16
2017-01-03T02:27:43.660Z,22.16
2017-01-03T02:28:13.710Z,22.26
2017-01-03T02:28:43.736Z,22.26
2017-01-03T02:29:13.779Z,22.06
2017-01-03T02:29:43.817Z,21.88
2017-01-03T02:30:13.855Z,22.16
2017-01-03T02:30:43.899Z,22.26
2017-01-03T02:31:13.932Z,22.26
2017-01-03T02:31:43.970Z,22.16
2017-01-03T02:32:14.012Z,22.26
2017-01-03T02:32:44.050Z,22.06
2017-01-03T02:33:14.089Z,22.26
2017-01-03T02:33:44.124Z,22.06
2017-01-03T02:34:14.166Z,22.16
2017-01-03T02:34:44.205Z,22.06
2017-01-03T02:35:14.240Z,21.88
2017-01-03T02:35:44.300Z,22.16
2017-01-03T02:36:14.317Z,22.06
2017-01-03T02:36:44.363Z,22.16
2017-01-03T02:37:14.401Z,22.06
2017-01-03T02:37:44.435Z,22.16
2017-01-03T02:38:14.473Z,22.06
2017-01-03T02:38:44.538Z,22.26
2017-01-03T02:39:14.550Z,21.88
2017-01-03T02:39:44.593Z,22.26
2017-01-03T02:40:14.630Z,22.06
2017-01-03T02:40:44.672Z,21.88
2017-01-03T02:41:14.715Z,22.26
2017-01-03T02:41:44.796Z,21.97
2017-01-03T02:42:14.783Z,22.06
2017-01-03T02:42:44.830Z,21.78
2017-01-03T02:43:14.862Z,22.16
2017-01-03T02:43:44.900Z,21.88
2017-01-03T02:44:14.951Z,21.88
2017-01-03T02:44:44.978Z,22.06
2017-01-03T02:45:15.021Z,22.06
2017-01-03T02:45:45.056Z,21.78
2017-01-03T02:46:15.098Z,21.88
2017-01-03T02:46:45.137Z,22.06
2017-01-03T02:47:15.171Z,21.78
2017-01-03T02:47:45.214Z,22.26
2017-01-03T02:48:15.253Z,21.88
2017-01-03T02:48:45.291Z,21.88
2017-01-03T02:49:15.330Z,21.88
2017-01-03T02:49:45.366Z,21.88
2017-01-03T02:50:15.408Z,22.06
2017-01-03T02:50:45.446Z,21.88
2017-01-03T02:51:15.482Z,21.88
2017-01-03T02:51:45.535Z,21.88
2017-01-03T02:52:15.559Z,21.78
2017-01-03T02:52:45.603Z,21.88
2017-01-03T02:53:15.641Z,22.06
2017-01-03T02:53:45.677Z,21.97
2017-01-03T02:54:15.718Z,21.78
2017-01-03T02:54:45.761Z,21.97
2017-01-03T02:55:15.792Z,21.78
2017-01-03T02:55:45.834Z,21.78
2017-01-03T02:56:15.869Z,21.88
2017-01-03T02:56:45.914Z,21.88
2017-01-03T02:57:15.948Z,21.78
2017-01-03T02:57:45.991Z,22.16
2017-01-03T02:58:16.025Z,21.88
2017-01-03T02:58:46.058Z,22.26
2017-01-03T02:59:16.108Z,21.88
2017-01-03T02:59:46.145Z,22.06
2017-01-03T03:00:16.185Z,22.06
2017-01-03T03:00:46.231Z,22.06
2017-01-03T03:01:16.261Z,22.16
2017-01-03T03:01:46.299Z,22.06
2017-01-03T03:02:16.335Z,22.06
2017-01-03T03:02:46.376Z,22.06
2017-01-03T03:03:16.416Z,22.06
2017-01-03T03:03:46.456Z,21.78
2017-01-03T03:04:16.494Z,21.88
2017-01-03T03:04:46.536Z,22.06
2017-01-03T03:05:16.572Z,21.97
2017-01-03T03:05:46.605Z,21.97
2017-01-03T03:06:16.652Z,22.06
2017-01-03T03:06:46.696Z,21.88
2017-01-03T03:07:16.726Z,21.88
2017-01-03T03:07:46.765Z,21.97
2017-01-03T03:08:16.800Z,21.78
2017-01-03T03:08:46.842Z,21.97
2017-01-03T03:09:16.885Z,21.78
2017-01-03T03:09:46.917Z,21.78
2017-01-03T03:10:16.955Z,21.78
2017-01-03T03:10:46.994Z,21.78
2017-01-03T03:11:17.032Z,21.88
2017-01-03T03:11:47.074Z,21.78
2017-01-03T03:12:17.315Z,21.88
2017-01-03T03:12:47.154Z,21.88
2017-01-03T03:13:17.188Z,21.88
2017-01-03T03:13:47.232Z,21.78
2017-01-03T03:14:17.265Z,21.78
2017-01-03T03:14:47.306Z,21.88
2017-01-03T03:15:17.343Z,21.88
2017-01-03T03:15:47.382Z,21.78
2017-01-03T03:16:17.423Z,21.78
2017-01-03T03:16:47.461Z,21.88
2017-01-03T03:17:17.500Z,21.78
2017-01-03T03:17:47.543Z,21.68
2017-01-03T03:18:17.576Z,21.78
2017-01-03T03:18:47.618Z,21.78
2017-01-03T03:19:17.654Z,21.78
2017-01-03T03:19:47.692Z,21.78
2017-01-03T03:20:17.737Z,21.88
2017-01-03T03:20:47.772Z,21.88
2017-01-03T03:21:17.810Z,22.06
2017-01-03T03:21:47.848Z,21.68
2017-01-03T03:22:17.886Z,21.68
2017-01-03T03:22:47.927Z,21.88
2017-01-03T03:23:17.965Z,21.97
2017-01-03T03:23:48.003Z,21.78
2017-01-03T03:24:18.047Z,22.06
2017-01-03T03:24:48.082Z,21.88
2017-01-03T03:25:18.120Z,21.97
2017-01-03T03:25:48.158Z,21.78
2017-01-03T03:26:18.195Z,22.06
2017-01-03T03:26:48.268Z,21.78
2017-01-03T03:27:18.276Z,21.78
2017-01-03T03:27:48.312Z,21.78
2017-01-03T03:28:18.354Z,21.88
2017-01-03T03:28:48.389Z,21.88
2017-01-03T03:29:18.426Z,21.97
2017-01-03T03:29:48.472Z,21.97
2017-01-03T03:30:18.506Z,21.88
2017-01-03T03:30:48.543Z,21.88
2017-01-03T03:31:18.582Z,21.78
2017-01-03T03:31:48.625Z,21.68
2017-01-03T03:32:18.661Z,21.88
2017-01-03T03:32:48.696Z,22.06
2017-01-03T03:33:18.745Z,21.88
2017-01-03T03:33:48.780Z,21.97
2017-01-03T03:34:18.817Z,22.06
2017-01-03T03:34:48.860Z,21.88
2017-01-03T03:35:18.893Z,21.68
2017-01-03T03:35:48.930Z,21.68
2017-01-03T03:36:18.971Z,21.78
2017-01-03T03:36:49.013Z,21.88
2017-01-03T03:37:19.051Z,21.88
2017-01-03T03:37:49.094Z,21.88
2017-01-03T03:38:19.125Z,22.16
2017-01-03T03:38:49.164Z,21.78
2017-01-03T03:39:19.201Z,22.06
2017-01-03T03:39:49.237Z,21.68
2017-01-03T03:40:19.280Z,21.78
2017-01-03T03:40:49.321Z,22.06
2017-01-03T03:41:19.360Z,21.88
2017-01-03T03:41:49.404Z,21.78
2017-01-03T03:42:19.435Z,22.06
2017-01-03T03:42:49.475Z,22.06
2017-01-03T03:43:19.515Z,21.88
2017-01-03T03:43:49.555Z,21.78
2017-01-03T03:44:19.595Z,21.88
2017-01-03T03:44:49.636Z,22.16
2017-01-03T03:45:19.667Z,21.88
2017-01-03T03:45:49.706Z,21.68
2017-01-03T03:46:19.753Z,21.88
2017-01-03T03:46:49.790Z,21.78
2017-01-03T03:47:19.826Z,21.78
2017-01-03T03:47:49.866Z,21.88
2017-01-03T03:48:19.905Z,21.78
2017-01-03T03:48:49.947Z,21.78
2017-01-03T03:49:19.981Z,21.88
2017-01-03T03:49:50.018Z,21.88
2017-01-03T03:50:20.058Z,22.06
2017-01-03T03:50:50.097Z,21.88
2017-01-03T03:51:20.135Z,21.68
2017-01-03T03:51:50.174Z,21.97
2017-01-03T03:52:20.211Z,21.88
2017-01-03T03:52:50.252Z,21.78
2017-01-03T03:53:20.292Z,22.06
2017-01-03T03:53:50.328Z,21.78
2017-01-03T03:54:20.369Z,21.68
2017-01-03T03:54:50.410Z,21.68
2017-01-03T03:55:20.446Z,21.78
2017-01-03T03:55:50.484Z,21.88
2017-01-03T03:56:20.523Z,21.88
2017-01-03T03:56:50.566Z,22.16
2017-01-03T03:57:20.602Z,21.78
2017-01-03T03:57:50.639Z,21.78
2017-01-03T03:58:20.981Z,21.88
2017-01-03T03:58:50.715Z,21.88
2017-01-03T03:59:20.754Z,21.97
2017-01-03T03:59:50.794Z,21.78
2017-01-03T04:00:20.840Z,21.78
2017-01-03T04:00:50.872Z,21.78
2017-01-03T04:01:20.910Z,21.78
2017-01-03T04:01:50.953Z,21.68
2017-01-03T04:02:20.992Z,21.97
2017-01-03T04:02:51.026Z,21.78
2017-01-03T04:03:21.064Z,22.06
2017-01-03T04:03:51.104Z,22.06
2017-01-03T04:04:21.141Z,21.68
2017-01-03T04:04:51.179Z,21.97
2017-01-03T04:05:21.219Z,21.88
2017-01-03T04:05:51.262Z,22.06
2017-01-03T04:06:21.299Z,21.88
2017-01-03T04:06:51.339Z,21.88
2017-01-03T04:07:21.374Z,22.06
2017-01-03T04:07:51.419Z,22.06
2017-01-03T04:08:21.456Z,21.97
2017-01-03T04:08:51.493Z,21.88
2017-01-03T04:09:21.532Z,21.78
2017-01-03T04:09:51.575Z,22.06
2017-01-03T04:10:21.607Z,22.06
2017-01-03T04:10:51.646Z,21.88
2017-01-03T04:11:21.687Z,22.06
2017-01-03T04:11:51.723Z,21.68
2017-01-03T04:12:21.763Z,22.06
2017-01-03T04:12:51.802Z,21.97
2017-01-03T04:13:21.841Z,21.68
2017-01-03T04:13:51.878Z,22.06
2017-01-03T04:14:21.917Z,22.06
2017-01-03T04:14:51.963Z,21.97
2017-01-03T04:15:22.001Z,21.88
2017-01-03T04:15:52.032Z,22.06
2017-01-03T04:16:22.071Z,22.06
2017-01-03T04:16:52.108Z,22.06
2017-01-03T04:17:22.153Z,21.88
2017-01-03T04:17:52.190Z,21.78
2017-01-03T04:18:22.229Z,21.68
2017-01-03T04:18:52.276Z,22.06
2017-01-03T04:19:22.307Z,21.78
2017-01-03T04:19:52.346Z,21.88
2017-01-03T04:20:22.386Z,21.68
2017-01-03T04:20:52.425Z,22.06
2017-01-03T04:21:22.463Z,21.97
2017-01-03T04:21:52.499Z,21.78
2017-01-03T04:22:22.536Z,21.68
2017-01-03T04:22:52.578Z,21.78
2017-01-03T04:23:22.616Z,21.88
2017-01-03T04:23:52.654Z,21.97
2017-01-03T04:24:22.695Z,21.97
2017-01-03T04:24:52.733Z,21.97
2017-01-03T04:25:22.767Z,21.97
2017-01-03T04:25:52.812Z,21.97
2017-01-03T04:26:22.848Z,21.97
2017-01-03T04:26:52.884Z,21.97
2017-01-03T04:27:22.929Z,21.97
2017-01-03T04:27:52.967Z,21.88
2017-01-03T04:28:23.010Z,21.97
2017-01-03T04:28:53.044Z,21.78
2017-01-03T04:29:23.083Z,21.78
2017-01-03T04:29:53.118Z,21.97
2017-01-03T04:30:23.156Z,21.97
2017-01-03T04:30:53.203Z,21.97
2017-01-03T04:31:23.235Z,21.97
2017-01-03T04:31:53.273Z,21.97
2017-01-03T04:32:23.315Z,22.06
2017-01-03T04:32:53.352Z,21.88
2017-01-03T04:33:23.390Z,21.88
2017-01-03T04:33:53.429Z,21.97
2017-01-03T04:34:23.470Z,21.97
2017-01-03T04:34:53.508Z,21.97
2017-01-03T04:35:23.542Z,21.97
2017-01-03T04:35:53.584Z,21.88
2017-01-03T04:36:23.619Z,22.06
2017-01-03T04:36:53.662Z,21.88
2017-01-03T04:37:23.700Z,21.97
2017-01-03T04:37:53.739Z,21.97
2017-01-03T04:38:23.774Z,21.88
2017-01-03T04:38:53.815Z,21.88
2017-01-03T04:39:23.859Z,21.97
2017-01-03T04:39:53.893Z,22.06
2017-01-03T04:40:23.934Z,21.88
2017-01-03T04:40:53.972Z,21.88
2017-01-03T04:41:24.008Z,21.88
2017-01-03T04:41:54.046Z,21.97
2017-01-03T04:42:24.085Z,21.88
2017-01-03T04:42:54.124Z,21.97
2017-01-03T04:43:24.167Z,21.88
2017-01-03T04:43:54.201Z,21.88
2017-01-03T04:44:24.240Z,21.78
2017-01-03T04:44:54.282Z,21.97
2017-01-03T04:45:24.320Z,21.88
2017-01-03T04:45:54.354Z,21.97
2017-01-03T04:46:24.396Z,21.88
2017-01-03T04:46:54.431Z,21.97
2017-01-03T04:47:24.476Z,21.97
2017-01-03T04:47:54.512Z,21.97
2017-01-03T04:48:24.550Z,21.88
2017-01-03T04:48:54.591Z,21.97
2017-01-03T04:49:24.631Z,21.97
2017-01-03T04:49:54.669Z,21.88
2017-01-03T04:50:24.707Z,21.88
2017-01-03T04:50:54.746Z,21.97
2017-01-03T04:51:24.787Z,21.88
2017-01-03T04:51:54.822Z,21.88
2017-01-03T04:52:24.861Z,21.88
2017-01-03T04:52:54.899Z,21.88
2017-01-03T04:53:24.940Z,21.88
2017-01-03T04:53:54.977Z,21.97
2017-01-03T04:54:25.016Z,21.88
2017-01-03T04:54:55.057Z,21.88
2017-01-03T04:55:25.094Z,21.88
2017-01-03T04:55:55.143Z,21.88
2017-01-03T04:56:25.168Z,21.97
2017-01-03T04:56:55.209Z,21.97
2017-01-03T04:57:25.252Z,21.97
2017-01-03T04:57:55.285Z,21.97
2017-01-03T04:58:25.326Z,21.97
2017-01-03T04:58:55.363Z,21.88
2017-01-03T04:59:25.407Z,21.97
2017-01-03T04:59:55.445Z,21.78
2017-01-03T05:00:25.479Z,21.88
2017-01-03T05:00:55.526Z,21.88
2017-01-03T05:01:25.557Z,21.97
2017-01-03T05:01:55.600Z,21.97
2017-01-03T05:02:25.638Z,21.97
2017-01-03T05:02:55.680Z,21.88
2017-01-03T05:03:25.715Z,21.88
2017-01-03T05:03:55.753Z,21.88
2017-01-03T05:04:25.792Z,21.78
2017-01-03T05:04:55.828Z,21.97
2017-01-03T05:05:25.868Z,21.88
2017-01-03T05:05:55.911Z,21.97
2017-01-03T05:06:25.974Z,21.88
2017-01-03T05:06:55.986Z,21.88
2017-01-03T05:07:26.021Z,21.97
2017-01-03T05:07:56.064Z,22.16
2017-01-03T05:08:26.102Z,21.88
2017-01-03T05:08:56.139Z,21.97
2017-01-03T05:09:26.188Z,21.97
2017-01-03T05:09:56.217Z,21.88
2017-01-03T05:10:26.257Z,22.16
2017-01-03T05:10:56.297Z,21.88
2017-01-03T05:11:26.331Z,21.88
2017-01-03T05:11:56.373Z,21.97
2017-01-03T05:12:26.410Z,21.88
2017-01-03T05:12:56.452Z,21.97
2017-01-03T05:13:26.488Z,21.88
2017-01-03T05:13:56.528Z,21.88
2017-01-03T05:14:26.564Z,21.88
2017-01-03T05:14:56.608Z,22.16
2017-01-03T05:15:26.641Z,21.88
2017-01-03T05:15:56.684Z,21.88
2017-01-03T05:16:26.733Z,21.97
2017-01-03T05:16:56.765Z,21.97
2017-01-03T05:17:26.800Z,21.97
2017-01-03T05:17:56.837Z,21.88
2017-01-03T05:18:26.875Z,21.97
2017-01-03T05:18:57.063Z,21.97
2017-01-03T05:19:26.954Z,21.78
2017-01-03T05:19:56.992Z,21.97
2017-01-03T05:20:27.047Z,21.78
2017-01-03T05:20:57.069Z,21.97
2017-01-03T05:21:27.109Z,21.97
2017-01-03T05:21:57.146Z,21.88
2017-01-03T05:22:27.186Z,21.97
2017-01-03T05:22:57.225Z,21.97
2017-01-03T05:23:27.264Z,21.97
2017-01-03T05:23:57.302Z,21.97
2017-01-03T05:24:27.341Z,21.88
2017-01-03T05:24:57.375Z,21.97
2017-01-03T05:25:27.415Z,21.97
2017-01-03T05:25:57.455Z,21.97
2017-01-03T05:26:27.491Z,21.88
2017-01-03T05:26:57.532Z,21.97
2017-01-03T05:27:27.569Z,21.88
2017-01-03T05:27:57.609Z,21.97
2017-01-03T05:28:27.646Z,22.16
2017-01-03T05:28:57.690Z,21.97
2017-01-03T05:29:27.726Z,21.97
2017-01-03T05:29:57.765Z,21.97
2017-01-03T05:30:27.802Z,21.97
2017-01-03T05:30:57.842Z,21.97
2017-01-03T05:31:27.879Z,21.78
2017-01-03T05:31:57.918Z,21.97
2017-01-03T05:32:27.956Z,21.97
2017-01-03T05:32:58.001Z,21.97
2017-01-03T05:33:28.037Z,21.97
2017-01-03T05:33:58.072Z,21.97
2017-01-03T05:34:28.114Z,21.97
2017-01-03T05:34:58.149Z,21.97
2017-01-03T05:35:28.188Z,21.88
2017-01-03T05:35:58.227Z,21.88
2017-01-03T05:36:28.277Z,21.88
2017-01-03T05:36:58.305Z,21.88
2017-01-03T05:37:28.348Z,21.97
2017-01-03T05:37:58.383Z,21.88
2017-01-03T05:38:28.430Z,21.78
2017-01-03T05:38:58.470Z,21.88
2017-01-03T05:39:28.505Z,21.88
2017-01-03T05:39:58.539Z,21.97
2017-01-03T05:40:28.579Z,21.88
2017-01-03T05:40:58.618Z,21.88
2017-01-03T05:41:28.655Z,21.97
2017-01-03T05:41:58.694Z,21.88
2017-01-03T05:42:28.738Z,21.88
2017-01-03T05:42:58.780Z,21.97
2017-01-03T05:43:28.810Z,21.97
2017-01-03T05:43:58.859Z,21.97
2017-01-03T05:44:28.889Z,21.88
2017-01-03T05:44:58.928Z,21.97
2017-01-03T05:45:29.014Z,21.97
2017-01-03T05:45:59.004Z,21.88
2017-01-03T05:46:29.044Z,21.88
2017-01-03T05:46:59.080Z,21.97
2017-01-03T05:47:29.122Z,21.97
2017-01-03T05:47:59.160Z,21.97
2017-01-03T05:48:29.197Z,21.97
2017-01-03T05:48:59.235Z,21.97
2017-01-03T05:49:29.272Z,21.97
2017-01-03T05:49:59.313Z,21.97
2017-01-03T05:50:29.358Z,21.88
2017-01-03T05:50:59.392Z,22.06
2017-01-03T05:51:29.428Z,21.97
2017-01-03T05:51:59.468Z,21.97
2017-01-03T05:52:29.506Z,21.88
2017-01-03T05:52:59.545Z,22.06
2017-01-03T05:53:29.590Z,21.88
2017-01-03T05:53:59.623Z,21.97
2017-01-03T05:54:29.667Z,22.06
2017-01-03T05:54:59.698Z,21.97
2017-01-03T05:55:29.741Z,21.97
2017-01-03T05:55:59.780Z,21.97
2017-01-03T05:56:29.814Z,21.97
2017-01-03T05:56:59.853Z,21.97
2017-01-03T05:57:29.897Z,21.97
2017-01-03T05:57:59.933Z,21.97
2017-01-03T05:58:29.970Z,22.06
2017-01-03T05:59:00.010Z,21.97
2017-01-03T05:59:30.051Z,21.97
2017-01-03T06:00:00.095Z,21.97
2017-01-03T06:00:30.127Z,21.97
2017-01-03T06:01:00.170Z,21.97
2017-01-03T06:01:30.201Z,21.97
2017-01-03T06:02:00.252Z,21.97
2017-01-03T06:02:30.284Z,21.97
2017-01-03T06:03:00.355Z,21.97
2017-01-03T06:03:30.359Z,21.78
2017-01-03T06:04:00.398Z,21.97
2017-01-03T06:04:30.434Z,21.97
2017-01-03T06:05:00.475Z,22.06
2017-01-03T06:05:30.513Z,21.97
2017-01-03T06:06:00.553Z,22.06
2017-01-03T06:06:30.593Z,22.06
2017-01-03T06:07:00.632Z,22.06
2017-01-03T06:07:30.667Z,21.97
2017-01-03T06:08:00.709Z,22.06
2017-01-03T06:08:30.749Z,22.06
2017-01-03T06:09:00.782Z,21.97
2017-01-03T06:09:30.826Z,22.06
2017-01-03T06:10:00.865Z,21.97
2017-01-03T06:10:30.900Z,21.78
2017-01-03T06:11:00.937Z,21.97
2017-01-03T06:11:30.978Z,22.06
2017-01-03T06:12:01.016Z,21.97
2017-01-03T06:12:31.056Z,21.97
2017-01-03T06:13:01.097Z,21.97
2017-01-03T06:13:31.133Z,21.97
2017-01-03T06:14:01.169Z,21.97
2017-01-03T06:14:31.212Z,21.97
2017-01-03T06:15:01.251Z,22.06
2017-01-03T06:15:31.285Z,21.97
2017-01-03T06:16:01.329Z,22.06
2017-01-03T06:16:31.367Z,21.97
2017-01-03T06:17:01.415Z,21.97
2017-01-03T06:17:31.441Z,22.06
2017-01-03T06:18:01.483Z,22.06
2017-01-03T06:18:31.525Z,21.97
2017-01-03T06:19:01.560Z,22.06
2017-01-03T06:19:31.597Z,21.97
2017-01-03T06:20:01.639Z,21.97
2017-01-03T06:20:31.677Z,21.97
2017-01-03T06:21:01.715Z,21.97
2017-01-03T06:21:31.761Z,22.06
2017-01-03T06:22:01.893Z,21.97
2017-01-03T06:22:31.829Z,21.88
2017-01-03T06:23:01.870Z,22.06
2017-01-03T06:23:31.906Z,21.97
2017-01-03T06:24:01.943Z,22.06
2017-01-03T06:24:31.990Z,21.97
2017-01-03T06:25:02.327Z,22.06
2017-01-03T06:25:32.067Z,21.97
2017-01-03T06:26:02.307Z,22.06
2017-01-03T06:26:32.139Z,21.78